sensor_id;sensor_type;location;lat;lon;timestamp;P1;durP1;ratioP1;P2;durP2;ratioP2
50709;SDS011;37033;49.994;21.992;2022-07-12T00:02:02;0.60;;;0.60;;
50709;SDS011;37033;49.994;21.992;2022-07-12T00:04:52;2.30;;;1.10;;
50709;SDS011;37033;49.994;21.992;2022-07-12T00:07:43;1.00;;;0.80;;
50709;SDS011;37033;49.994;21.992;2022-07-12T00:10:34;1.60;;;0.90;;
50709;SDS011;37033;49.994;21.992;2022-07-12T00:13:24;1.40;;;0.80;;
50709;SDS011;37033;49.994;21.992;2022-07-12T00:16:16;2.10;;;0.80;;
50709;SDS011;37033;49.994;21.992;2022-07-12T00:19:07;2.70;;;1.40;;
50709;SDS011;37033;49.994;21.992;2022-07-12T00:21:57;1.50;;;0.90;;
50709;SDS011;37033;49.994;21.992;2022-07-12T00:24:47;5.30;;;1.10;;
50709;SDS011;37033;49.994;21.992;2022-07-12T00:27:38;2.30;;;1.00;;
50709;SDS011;37033;49.994;21.992;2022-07-12T00:30:29;3.40;;;1.10;;
50709;SDS011;37033;49.994;21.992;2022-07-12T00:33:20;2.20;;;0.80;;
50709;SDS011;37033;49.994;21.992;2022-07-12T00:36:10;2.60;;;0.90;;
50709;SDS011;37033;49.994;21.992;2022-07-12T00:39:01;2.10;;;1.40;;
50709;SDS011;37033;49.994;21.992;2022-07-12T00:41:51;4.10;;;1.00;;
50709;SDS011;37033;49.994;21.992;2022-07-12T00:44:42;1.50;;;0.90;;
50709;SDS011;37033;49.994;21.992;2022-07-12T00:47:33;2.30;;;0.70;;
50709;SDS011;37033;49.994;21.992;2022-07-12T00:50:27;3.20;;;0.90;;
50709;SDS011;37033;49.994;21.992;2022-07-12T00:53:17;1.10;;;0.80;;
50709;SDS011;37033;49.994;21.992;2022-07-12T00:56:10;3.00;;;1.20;;
50709;SDS011;37033;49.994;21.992;2022-07-12T00:59:05;2.30;;;0.90;;
50709;SDS011;37033;49.994;21.992;2022-07-12T01:01:55;2.20;;;1.10;;
50709;SDS011;37033;49.994;21.992;2022-07-12T01:04:46;4.70;;;1.30;;
50709;SDS011;37033;49.994;21.992;2022-07-12T01:07:37;1.00;;;0.80;;
50709;SDS011;37033;49.994;21.992;2022-07-12T01:10:29;3.40;;;1.30;;
50709;SDS011;37033;49.994;21.992;2022-07-12T01:13:20;1.40;;;1.10;;
50709;SDS011;37033;49.994;21.992;2022-07-12T01:16:11;2.20;;;1.40;;
50709;SDS011;37033;49.994;21.992;2022-07-12T01:19:02;3.80;;;1.20;;
50709;SDS011;37033;49.994;21.992;2022-07-12T01:21:55;4.00;;;1.30;;
50709;SDS011;37033;49.994;21.992;2022-07-12T01:24:49;1.60;;;1.10;;
50709;SDS011;37033;49.994;21.992;2022-07-12T01:27:39;1.20;;;1.00;;
50709;SDS011;37033;49.994;21.992;2022-07-12T01:30:30;1.50;;;1.00;;
50709;SDS011;37033;49.994;21.992;2022-07-12T01:33:21;1.20;;;1.10;;
50709;SDS011;37033;49.994;21.992;2022-07-12T01:36:13;1.60;;;1.10;;
50709;SDS011;37033;49.994;21.992;2022-07-12T01:39:04;1.60;;;1.00;;
50709;SDS011;37033;49.994;21.992;2022-07-12T01:41:54;2.30;;;1.20;;
50709;SDS011;37033;49.994;21.992;2022-07-12T01:44:45;3.60;;;1.50;;
50709;SDS011;37033;49.994;21.992;2022-07-12T01:47:36;1.80;;;1.20;;
50709;SDS011;37033;49.994;21.992;2022-07-12T01:50:26;2.20;;;1.20;;
50709;SDS011;37033;49.994;21.992;2022-07-12T01:53:17;1.90;;;1.00;;
50709;SDS011;37033;49.994;21.992;2022-07-12T01:56:09;3.10;;;1.30;;
50709;SDS011;37033;49.994;21.992;2022-07-12T01:58:59;1.90;;;1.70;;
50709;SDS011;37033;49.994;21.992;2022-07-12T02:01:50;2.40;;;1.10;;
50709;SDS011;37033;49.994;21.992;2022-07-12T02:04:41;2.60;;;1.10;;
50709;SDS011;37033;49.994;21.992;2022-07-12T02:07:32;2.60;;;1.50;;
50709;SDS011;37033;49.994;21.992;2022-07-12T02:10:24;3.90;;;1.60;;
50709;SDS011;37033;49.994;21.992;2022-07-12T02:13:15;2.40;;;1.30;;
50709;SDS011;37033;49.994;21.992;2022-07-12T02:16:05;2.00;;;1.40;;
50709;SDS011;37033;49.994;21.992;2022-07-12T02:18:56;5.10;;;1.80;;
50709;SDS011;37033;49.994;21.992;2022-07-12T02:21:47;5.70;;;1.50;;
50709;SDS011;37033;49.994;21.992;2022-07-12T02:24:37;2.70;;;1.40;;
50709;SDS011;37033;49.994;21.992;2022-07-12T02:27:27;4.00;;;1.70;;
50709;SDS011;37033;49.994;21.992;2022-07-12T02:30:18;4.70;;;1.60;;
50709;SDS011;37033;49.994;21.992;2022-07-12T02:33:08;3.60;;;1.70;;
50709;SDS011;37033;49.994;21.992;2022-07-12T02:36:03;2.00;;;1.50;;
50709;SDS011;37033;49.994;21.992;2022-07-12T02:38:54;2.80;;;1.80;;
50709;SDS011;37033;49.994;21.992;2022-07-12T02:41:49;3.50;;;1.70;;
50709;SDS011;37033;49.994;21.992;2022-07-12T02:44:39;3.10;;;1.70;;
50709;SDS011;37033;49.994;21.992;2022-07-12T02:47:30;2.50;;;2.10;;
50709;SDS011;37033;49.994;21.992;2022-07-12T02:50:20;2.00;;;1.70;;
50709;SDS011;37033;49.994;21.992;2022-07-12T02:53:11;2.30;;;2.10;;
50709;SDS011;37033;49.994;21.992;2022-07-12T02:56:01;3.90;;;1.80;;
50709;SDS011;37033;49.994;21.992;2022-07-12T02:58:53;2.30;;;1.80;;
50709;SDS011;37033;49.994;21.992;2022-07-12T03:01:43;3.00;;;1.70;;
50709;SDS011;37033;49.994;21.992;2022-07-12T03:04:34;2.90;;;2.00;;
50709;SDS011;37033;49.994;21.992;2022-07-12T03:07:24;2.50;;;2.10;;
50709;SDS011;37033;49.994;21.992;2022-07-12T03:10:15;4.70;;;2.10;;
50709;SDS011;37033;49.994;21.992;2022-07-12T03:13:05;3.30;;;1.70;;
50709;SDS011;37033;49.994;21.992;2022-07-12T03:15:57;2.10;;;1.90;;
50709;SDS011;37033;49.994;21.992;2022-07-12T03:18:48;3.50;;;1.70;;
50709;SDS011;37033;49.994;21.992;2022-07-12T03:21:38;3.10;;;1.80;;
50709;SDS011;37033;49.994;21.992;2022-07-12T03:24:29;2.80;;;1.60;;
50709;SDS011;37033;49.994;21.992;2022-07-12T03:27:19;2.40;;;1.50;;
50709;SDS011;37033;49.994;21.992;2022-07-12T03:30:10;2.40;;;1.90;;
50709;SDS011;37033;49.994;21.992;2022-07-12T03:33:01;2.90;;;1.80;;
50709;SDS011;37033;49.994;21.992;2022-07-12T03:35:52;2.10;;;1.60;;
50709;SDS011;37033;49.994;21.992;2022-07-12T03:38:43;2.40;;;1.90;;
50709;SDS011;37033;49.994;21.992;2022-07-12T03:41:33;4.60;;;2.00;;
50709;SDS011;37033;49.994;21.992;2022-07-12T03:44:24;2.40;;;1.50;;
50709;SDS011;37033;49.994;21.992;2022-07-12T03:47:17;4.20;;;1.70;;
50709;SDS011;37033;49.994;21.992;2022-07-12T03:50:08;3.70;;;2.00;;
50709;SDS011;37033;49.994;21.992;2022-07-12T03:53:00;2.70;;;2.20;;
50709;SDS011;37033;49.994;21.992;2022-07-12T03:55:50;3.40;;;2.00;;
50709;SDS011;37033;49.994;21.992;2022-07-12T03:58:40;4.30;;;2.00;;
50709;SDS011;37033;49.994;21.992;2022-07-12T04:01:31;5.50;;;2.10;;
50709;SDS011;37033;49.994;21.992;2022-07-12T04:04:21;3.60;;;2.50;;
50709;SDS011;37033;49.994;21.992;2022-07-12T04:07:12;3.60;;;2.60;;
50709;SDS011;37033;49.994;21.992;2022-07-12T04:10:04;3.20;;;2.70;;
50709;SDS011;37033;49.994;21.992;2022-07-12T04:12:55;4.20;;;3.00;;
50709;SDS011;37033;49.994;21.992;2022-07-12T04:15:46;3.90;;;3.10;;
50709;SDS011;37033;49.994;21.992;2022-07-12T04:18:36;3.80;;;3.20;;
50709;SDS011;37033;49.994;21.992;2022-07-12T04:21:28;4.20;;;3.10;;
50709;SDS011;37033;49.994;21.992;2022-07-12T04:24:19;3.90;;;3.10;;
50709;SDS011;37033;49.994;21.992;2022-07-12T04:27:09;3.20;;;2.90;;
50709;SDS011;37033;49.994;21.992;2022-07-12T04:30:00;4.10;;;2.70;;
50709;SDS011;37033;49.994;21.992;2022-07-12T04:32:51;4.70;;;2.70;;
50709;SDS011;37033;49.994;21.992;2022-07-12T04:35:41;2.80;;;2.40;;
50709;SDS011;37033;49.994;21.992;2022-07-12T04:38:32;3.40;;;2.50;;
50709;SDS011;37033;49.994;21.992;2022-07-12T04:41:22;3.60;;;2.70;;
50709;SDS011;37033;49.994;21.992;2022-07-12T04:44:12;4.10;;;2.40;;
50709;SDS011;37033;49.994;21.992;2022-07-12T04:47:03;4.30;;;2.80;;
50709;SDS011;37033;49.994;21.992;2022-07-12T04:49:53;15.20;;;2.90;;
50709;SDS011;37033;49.994;21.992;2022-07-12T04:52:43;3.10;;;2.20;;
50709;SDS011;37033;49.994;21.992;2022-07-12T04:55:34;3.80;;;2.80;;
50709;SDS011;37033;49.994;21.992;2022-07-12T04:58:25;3.80;;;2.50;;
50709;SDS011;37033;49.994;21.992;2022-07-12T05:01:15;3.10;;;2.60;;
50709;SDS011;37033;49.994;21.992;2022-07-12T05:04:05;3.20;;;2.90;;
50709;SDS011;37033;49.994;21.992;2022-07-12T05:06:56;4.80;;;3.80;;
50709;SDS011;37033;49.994;21.992;2022-07-12T05:09:46;2.80;;;2.60;;
50709;SDS011;37033;49.994;21.992;2022-07-12T05:12:38;3.60;;;2.30;;
50709;SDS011;37033;49.994;21.992;2022-07-12T05:15:29;3.10;;;2.10;;
50709;SDS011;37033;49.994;21.992;2022-07-12T05:18:19;4.90;;;3.00;;
50709;SDS011;37033;49.994;21.992;2022-07-12T05:21:10;4.40;;;2.60;;
50709;SDS011;37033;49.994;21.992;2022-07-12T05:24:00;4.50;;;2.90;;
50709;SDS011;37033;49.994;21.992;2022-07-12T05:26:51;7.30;;;2.70;;
50709;SDS011;37033;49.994;21.992;2022-07-12T05:29:42;3.10;;;2.60;;
50709;SDS011;37033;49.994;21.992;2022-07-12T05:32:32;5.70;;;2.70;;
50709;SDS011;37033;49.994;21.992;2022-07-12T05:35:23;7.60;;;3.00;;
50709;SDS011;37033;49.994;21.992;2022-07-12T05:38:14;3.00;;;2.80;;
50709;SDS011;37033;49.994;21.992;2022-07-12T05:41:06;5.20;;;2.60;;
50709;SDS011;37033;49.994;21.992;2022-07-12T05:43:56;3.30;;;2.40;;
50709;SDS011;37033;49.994;21.992;2022-07-12T05:46:47;4.40;;;2.50;;
50709;SDS011;37033;49.994;21.992;2022-07-12T05:49:37;5.20;;;2.10;;
50709;SDS011;37033;49.994;21.992;2022-07-12T05:52:28;2.50;;;2.00;;
50709;SDS011;37033;49.994;21.992;2022-07-12T05:55:36;6.80;;;2.70;;
50709;SDS011;37033;49.994;21.992;2022-07-12T05:58:27;2.30;;;2.10;;
50709;SDS011;37033;49.994;21.992;2022-07-12T06:01:17;6.50;;;2.10;;
50709;SDS011;37033;49.994;21.992;2022-07-12T06:04:08;5.20;;;1.90;;
50709;SDS011;37033;49.994;21.992;2022-07-12T06:06:58;2.60;;;2.00;;
50709;SDS011;37033;49.994;21.992;2022-07-12T06:09:49;2.80;;;2.00;;
50709;SDS011;37033;49.994;21.992;2022-07-12T06:12:40;4.90;;;1.90;;
50709;SDS011;37033;49.994;21.992;2022-07-12T06:15:30;13.50;;;2.20;;
50709;SDS011;37033;49.994;21.992;2022-07-12T06:18:21;2.50;;;1.70;;
50709;SDS011;37033;49.994;21.992;2022-07-12T06:21:11;4.80;;;1.80;;
50709;SDS011;37033;49.994;21.992;2022-07-12T06:24:02;4.00;;;1.40;;
50709;SDS011;37033;49.994;21.992;2022-07-12T06:26:53;2.50;;;1.70;;
50709;SDS011;37033;49.994;21.992;2022-07-12T06:29:43;2.40;;;1.50;;
50709;SDS011;37033;49.994;21.992;2022-07-12T06:32:34;2.40;;;1.30;;
50709;SDS011;37033;49.994;21.992;2022-07-12T06:35:25;5.00;;;1.60;;
50709;SDS011;37033;49.994;21.992;2022-07-12T06:38:16;1.50;;;1.40;;
50709;SDS011;37033;49.994;21.992;2022-07-12T06:41:06;2.80;;;1.40;;
50709;SDS011;37033;49.994;21.992;2022-07-12T06:43:57;2.80;;;1.00;;
50709;SDS011;37033;49.994;21.992;2022-07-12T06:46:47;1.90;;;0.90;;
50709;SDS011;37033;49.994;21.992;2022-07-12T06:49:37;4.50;;;1.20;;
50709;SDS011;37033;49.994;21.992;2022-07-12T06:52:28;2.60;;;1.00;;
50709;SDS011;37033;49.994;21.992;2022-07-12T06:55:19;7.10;;;1.30;;
50709;SDS011;37033;49.994;21.992;2022-07-12T06:58:09;3.30;;;1.20;;
50709;SDS011;37033;49.994;21.992;2022-07-12T07:01:00;1.50;;;0.80;;
50709;SDS011;37033;49.994;21.992;2022-07-12T07:03:50;2.60;;;0.90;;
50709;SDS011;37033;49.994;21.992;2022-07-12T07:06:41;3.70;;;1.10;;
50709;SDS011;37033;49.994;21.992;2022-07-12T07:09:32;1.50;;;0.80;;
50709;SDS011;37033;49.994;21.992;2022-07-12T07:12:22;1.70;;;0.50;;
50709;SDS011;37033;49.994;21.992;2022-07-12T07:15:13;2.10;;;0.60;;
50709;SDS011;37033;49.994;21.992;2022-07-12T07:18:03;1.20;;;0.70;;
50709;SDS011;37033;49.994;21.992;2022-07-12T07:20:54;1.70;;;0.60;;
50709;SDS011;37033;49.994;21.992;2022-07-12T07:23:44;2.50;;;0.90;;
50709;SDS011;37033;49.994;21.992;2022-07-12T07:26:35;1.50;;;0.80;;
50709;SDS011;37033;49.994;21.992;2022-07-12T07:29:25;0.70;;;0.70;;
50709;SDS011;37033;49.994;21.992;2022-07-12T07:32:34;1.30;;;0.80;;
50709;SDS011;37033;49.994;21.992;2022-07-12T07:35:25;2.20;;;1.60;;
50709;SDS011;37033;49.994;21.992;2022-07-12T07:38:17;2.00;;;0.90;;
50709;SDS011;37033;49.994;21.992;2022-07-12T07:41:08;1.50;;;0.80;;
50709;SDS011;37033;49.994;21.992;2022-07-12T07:43:58;1.70;;;0.60;;
50709;SDS011;37033;49.994;21.992;2022-07-12T07:46:49;3.10;;;0.80;;
50709;SDS011;37033;49.994;21.992;2022-07-12T07:49:39;3.80;;;0.60;;
50709;SDS011;37033;49.994;21.992;2022-07-12T07:52:30;2.70;;;0.90;;
50709;SDS011;37033;49.994;21.992;2022-07-12T07:55:21;1.70;;;0.70;;
50709;SDS011;37033;49.994;21.992;2022-07-12T07:58:11;2.00;;;0.80;;
50709;SDS011;37033;49.994;21.992;2022-07-12T08:01:05;2.10;;;0.80;;
50709;SDS011;37033;49.994;21.992;2022-07-12T08:03:55;2.00;;;0.70;;
50709;SDS011;37033;49.994;21.992;2022-07-12T08:06:46;1.60;;;0.60;;
50709;SDS011;37033;49.994;21.992;2022-07-12T08:09:37;2.40;;;0.80;;
50709;SDS011;37033;49.994;21.992;2022-07-12T08:12:28;1.40;;;1.10;;
50709;SDS011;37033;49.994;21.992;2022-07-12T08:15:18;2.20;;;0.70;;
50709;SDS011;37033;49.994;21.992;2022-07-12T08:18:08;1.80;;;0.80;;
50709;SDS011;37033;49.994;21.992;2022-07-12T08:20:59;1.00;;;0.70;;
50709;SDS011;37033;49.994;21.992;2022-07-12T08:23:50;0.90;;;0.60;;
50709;SDS011;37033;49.994;21.992;2022-07-12T08:26:41;1.40;;;0.60;;
50709;SDS011;37033;49.994;21.992;2022-07-12T08:29:31;3.10;;;0.70;;
50709;SDS011;37033;49.994;21.992;2022-07-12T08:32:22;1.00;;;0.60;;
50709;SDS011;37033;49.994;21.992;2022-07-12T08:35:12;1.10;;;0.50;;
50709;SDS011;37033;49.994;21.992;2022-07-12T08:38:04;3.50;;;0.60;;
50709;SDS011;37033;49.994;21.992;2022-07-12T08:40:55;2.00;;;0.80;;
50709;SDS011;37033;49.994;21.992;2022-07-12T08:43:46;6.50;;;0.80;;
50709;SDS011;37033;49.994;21.992;2022-07-12T08:46:36;5.40;;;1.20;;
50709;SDS011;37033;49.994;21.992;2022-07-12T08:49:27;3.30;;;0.90;;
50709;SDS011;37033;49.994;21.992;2022-07-12T08:55:27;2.40;;;0.50;;
50709;SDS011;37033;49.994;21.992;2022-07-12T08:58:21;2.70;;;0.70;;
50709;SDS011;37033;49.994;21.992;2022-07-12T09:01:11;4.50;;;0.80;;
50709;SDS011;37033;49.994;21.992;2022-07-12T09:04:11;1.40;;;0.60;;
50709;SDS011;37033;49.994;21.992;2022-07-12T09:07:14;3.30;;;0.90;;
50709;SDS011;37033;49.994;21.992;2022-07-12T09:10:05;3.40;;;0.50;;
50709;SDS011;37033;49.994;21.992;2022-07-12T09:12:56;0.80;;;0.40;;
50709;SDS011;37033;49.994;21.992;2022-07-12T09:15:47;0.40;;;0.40;;
50709;SDS011;37033;49.994;21.992;2022-07-12T09:18:37;1.50;;;0.90;;
50709;SDS011;37033;49.994;21.992;2022-07-12T09:21:28;3.40;;;0.80;;
50709;SDS011;37033;49.994;21.992;2022-07-12T09:24:19;0.80;;;0.60;;
50709;SDS011;37033;49.994;21.992;2022-07-12T09:27:12;1.60;;;0.70;;
50709;SDS011;37033;49.994;21.992;2022-07-12T09:30:03;1.20;;;0.90;;
50709;SDS011;37033;49.994;21.992;2022-07-12T09:33:01;3.70;;;0.80;;
50709;SDS011;37033;49.994;21.992;2022-07-12T09:36:10;2.30;;;1.70;;
50709;SDS011;37033;49.994;21.992;2022-07-12T09:39:01;2.40;;;0.80;;
50709;SDS011;37033;49.994;21.992;2022-07-12T09:41:52;0.90;;;0.60;;
50709;SDS011;37033;49.994;21.992;2022-07-12T09:44:44;1.10;;;0.70;;
50709;SDS011;37033;49.994;21.992;2022-07-12T09:47:37;2.10;;;0.80;;
50709;SDS011;37033;49.994;21.992;2022-07-12T09:50:31;1.00;;;0.80;;
50709;SDS011;37033;49.994;21.992;2022-07-12T09:53:26;5.90;;;1.00;;
50709;SDS011;37033;49.994;21.992;2022-07-12T09:56:20;1.00;;;0.70;;
50709;SDS011;37033;49.994;21.992;2022-07-12T09:59:14;2.90;;;0.90;;
50709;SDS011;37033;49.994;21.992;2022-07-12T10:02:10;0.60;;;0.50;;
50709;SDS011;37033;49.994;21.992;2022-07-12T10:05:03;1.60;;;0.70;;
50709;SDS011;37033;49.994;21.992;2022-07-12T10:07:55;0.80;;;0.70;;
50709;SDS011;37033;49.994;21.992;2022-07-12T10:10:47;0.60;;;0.60;;
50709;SDS011;37033;49.994;21.992;2022-07-12T10:13:38;2.90;;;0.60;;
50709;SDS011;37033;49.994;21.992;2022-07-12T10:16:28;1.70;;;0.60;;
50709;SDS011;37033;49.994;21.992;2022-07-12T10:22:20;6.40;;;0.90;;
50709;SDS011;37033;49.994;21.992;2022-07-12T10:28:21;2.00;;;0.60;;
50709;SDS011;37033;49.994;21.992;2022-07-12T10:31:32;2.60;;;0.60;;
50709;SDS011;37033;49.994;21.992;2022-07-12T10:34:24;1.70;;;0.70;;
50709;SDS011;37033;49.994;21.992;2022-07-12T10:37:16;3.20;;;0.70;;
50709;SDS011;37033;49.994;21.992;2022-07-12T10:40:12;0.70;;;0.50;;
50709;SDS011;37033;49.994;21.992;2022-07-12T10:43:14;0.70;;;0.50;;
50709;SDS011;37033;49.994;21.992;2022-07-12T10:46:05;1.90;;;0.70;;
50709;SDS011;37033;49.994;21.992;2022-07-12T10:52:23;0.80;;;0.60;;
50709;SDS011;37033;49.994;21.992;2022-07-12T10:55:18;1.90;;;0.50;;
50709;SDS011;37033;49.994;21.992;2022-07-12T10:58:09;1.30;;;0.50;;
50709;SDS011;37033;49.994;21.992;2022-07-12T11:01:17;0.50;;;0.50;;
50709;SDS011;37033;49.994;21.992;2022-07-12T11:04:09;0.80;;;0.80;;
50709;SDS011;37033;49.994;21.992;2022-07-12T11:07:00;0.70;;;0.60;;
50709;SDS011;37033;49.994;21.992;2022-07-12T11:09:52;0.60;;;0.60;;
50709;SDS011;37033;49.994;21.992;2022-07-12T11:12:43;0.40;;;0.40;;
50709;SDS011;37033;49.994;21.992;2022-07-12T11:15:34;0.90;;;0.50;;
50709;SDS011;37033;49.994;21.992;2022-07-12T11:18:28;1.70;;;0.60;;
50709;SDS011;37033;49.994;21.992;2022-07-12T11:21:19;1.20;;;0.70;;
50709;SDS011;37033;49.994;21.992;2022-07-12T11:24:18;3.70;;;0.80;;
50709;SDS011;37033;49.994;21.992;2022-07-12T11:27:10;1.30;;;0.60;;
50709;SDS011;37033;49.994;21.992;2022-07-12T11:30:03;0.40;;;0.40;;
50709;SDS011;37033;49.994;21.992;2022-07-12T11:32:55;3.50;;;0.50;;
50709;SDS011;37033;49.994;21.992;2022-07-12T11:35:45;1.20;;;0.50;;
50709;SDS011;37033;49.994;21.992;2022-07-12T11:38:36;1.90;;;0.50;;
50709;SDS011;37033;49.994;21.992;2022-07-12T11:41:27;0.80;;;0.30;;
50709;SDS011;37033;49.994;21.992;2022-07-12T11:44:18;2.90;;;0.50;;
50709;SDS011;37033;49.994;21.992;2022-07-12T11:47:08;2.10;;;0.40;;
50709;SDS011;37033;49.994;21.992;2022-07-12T11:49:59;0.40;;;0.40;;
50709;SDS011;37033;49.994;21.992;2022-07-12T11:52:49;0.80;;;0.40;;
50709;SDS011;37033;49.994;21.992;2022-07-12T11:55:42;0.60;;;0.40;;
50709;SDS011;37033;49.994;21.992;2022-07-12T11:58:34;2.10;;;0.30;;
50709;SDS011;37033;49.994;21.992;2022-07-12T12:01:27;3.70;;;0.60;;
50709;SDS011;37033;49.994;21.992;2022-07-12T12:04:18;1.10;;;0.30;;
50709;SDS011;37033;49.994;21.992;2022-07-12T12:07:08;0.60;;;0.40;;
50709;SDS011;37033;49.994;21.992;2022-07-12T12:10:03;0.60;;;0.50;;
50709;SDS011;37033;49.994;21.992;2022-07-12T12:12:59;1.60;;;0.30;;
50709;SDS011;37033;49.994;21.992;2022-07-12T12:15:51;1.00;;;0.50;;
50709;SDS011;37033;49.994;21.992;2022-07-12T12:18:42;0.80;;;0.50;;
50709;SDS011;37033;49.994;21.992;2022-07-12T12:21:34;4.40;;;1.50;;
50709;SDS011;37033;49.994;21.992;2022-07-12T12:24:24;3.70;;;0.40;;
50709;SDS011;37033;49.994;21.992;2022-07-12T12:27:23;2.10;;;0.80;;
50709;SDS011;37033;49.994;21.992;2022-07-12T12:30:14;0.40;;;0.30;;
50709;SDS011;37033;49.994;21.992;2022-07-12T12:33:06;1.90;;;0.40;;
50709;SDS011;37033;49.994;21.992;2022-07-12T12:35:56;3.30;;;3.00;;
50709;SDS011;37033;49.994;21.992;2022-07-12T12:38:59;1.90;;;0.40;;
50709;SDS011;37033;49.994;21.992;2022-07-12T12:41:50;0.50;;;0.40;;
50709;SDS011;37033;49.994;21.992;2022-07-12T12:44:40;1.00;;;0.50;;
50709;SDS011;37033;49.994;21.992;2022-07-12T12:47:31;1.50;;;0.40;;
50709;SDS011;37033;49.994;21.992;2022-07-12T12:50:45;1.00;;;0.40;;
50709;SDS011;37033;49.994;21.992;2022-07-12T12:56:26;1.60;;;0.50;;
50709;SDS011;37033;49.994;21.992;2022-07-12T12:59:16;1.90;;;0.50;;
50709;SDS011;37033;49.994;21.992;2022-07-12T13:02:07;1.90;;;0.70;;
50709;SDS011;37033;49.994;21.992;2022-07-12T13:04:57;5.80;;;0.70;;
50709;SDS011;37033;49.994;21.992;2022-07-12T13:07:48;29.40;;;2.40;;
50709;SDS011;37033;49.994;21.992;2022-07-12T13:10:39;8.00;;;0.70;;
50709;SDS011;37033;49.994;21.992;2022-07-12T13:13:31;2.30;;;0.70;;
50709;SDS011;37033;49.994;21.992;2022-07-12T13:16:21;3.60;;;0.70;;
50709;SDS011;37033;49.994;21.992;2022-07-12T13:19:12;2.90;;;0.90;;
50709;SDS011;37033;49.994;21.992;2022-07-12T13:22:04;5.90;;;0.70;;
50709;SDS011;37033;49.994;21.992;2022-07-12T13:24:54;2.20;;;0.70;;
50709;SDS011;37033;49.994;21.992;2022-07-12T13:27:45;0.80;;;0.60;;
50709;SDS011;37033;49.994;21.992;2022-07-12T13:30:37;4.20;;;1.00;;
50709;SDS011;37033;49.994;21.992;2022-07-12T13:33:28;2.00;;;0.80;;
50709;SDS011;37033;49.994;21.992;2022-07-12T13:36:18;0.90;;;0.70;;
50709;SDS011;37033;49.994;21.992;2022-07-12T13:39:09;3.40;;;0.80;;
50709;SDS011;37033;49.994;21.992;2022-07-12T13:42:16;7.20;;;1.00;;
50709;SDS011;37033;49.994;21.992;2022-07-12T13:45:09;2.30;;;0.70;;
50709;SDS011;37033;49.994;21.992;2022-07-12T13:48:01;1.20;;;0.80;;
50709;SDS011;37033;49.994;21.992;2022-07-12T13:50:51;4.00;;;0.80;;
50709;SDS011;37033;49.994;21.992;2022-07-12T13:53:42;1.80;;;0.80;;
50709;SDS011;37033;49.994;21.992;2022-07-12T13:56:32;1.80;;;1.00;;
50709;SDS011;37033;49.994;21.992;2022-07-12T13:59:22;2.20;;;0.60;;
50709;SDS011;37033;49.994;21.992;2022-07-12T14:02:13;2.00;;;0.90;;
50709;SDS011;37033;49.994;21.992;2022-07-12T14:05:04;1.90;;;0.70;;
50709;SDS011;37033;49.994;21.992;2022-07-12T14:07:56;3.00;;;0.60;;
50709;SDS011;37033;49.994;21.992;2022-07-12T14:10:48;1.80;;;0.70;;
50709;SDS011;37033;49.994;21.992;2022-07-12T14:13:38;6.00;;;1.00;;
50709;SDS011;37033;49.994;21.992;2022-07-12T14:16:30;1.60;;;0.70;;
50709;SDS011;37033;49.994;21.992;2022-07-12T14:19:20;1.60;;;0.60;;
50709;SDS011;37033;49.994;21.992;2022-07-12T14:22:11;3.70;;;0.90;;
50709;SDS011;37033;49.994;21.992;2022-07-12T14:25:02;2.50;;;0.70;;
50709;SDS011;37033;49.994;21.992;2022-07-12T14:27:54;3.70;;;1.30;;
50709;SDS011;37033;49.994;21.992;2022-07-12T14:30:44;1.20;;;0.60;;
50709;SDS011;37033;49.994;21.992;2022-07-12T14:33:35;2.80;;;0.70;;
50709;SDS011;37033;49.994;21.992;2022-07-12T14:36:26;6.90;;;0.90;;
50709;SDS011;37033;49.994;21.992;2022-07-12T14:39:17;4.10;;;0.70;;
50709;SDS011;37033;49.994;21.992;2022-07-12T14:42:08;1.70;;;0.60;;
50709;SDS011;37033;49.994;21.992;2022-07-12T14:44:58;2.40;;;0.60;;
50709;SDS011;37033;49.994;21.992;2022-07-12T14:47:49;1.40;;;0.60;;
50709;SDS011;37033;49.994;21.992;2022-07-12T14:50:40;0.50;;;0.40;;
50709;SDS011;37033;49.994;21.992;2022-07-12T14:53:30;2.70;;;0.40;;
50709;SDS011;37033;49.994;21.992;2022-07-12T14:56:21;1.40;;;0.40;;
50709;SDS011;37033;49.994;21.992;2022-07-12T14:59:12;4.80;;;0.50;;
50709;SDS011;37033;49.994;21.992;2022-07-12T15:02:02;1.90;;;0.60;;
50709;SDS011;37033;49.994;21.992;2022-07-12T15:04:53;1.50;;;0.50;;
50709;SDS011;37033;49.994;21.992;2022-07-12T15:07:44;1.20;;;0.50;;
50709;SDS011;37033;49.994;21.992;2022-07-12T15:10:35;2.20;;;0.40;;
50709;SDS011;37033;49.994;21.992;2022-07-12T15:13:26;1.00;;;0.60;;
50709;SDS011;37033;49.994;21.992;2022-07-12T15:16:18;7.20;;;0.60;;
50709;SDS011;37033;49.994;21.992;2022-07-12T15:19:09;3.50;;;1.10;;
50709;SDS011;37033;49.994;21.992;2022-07-12T15:21:59;1.90;;;0.60;;
50709;SDS011;37033;49.994;21.992;2022-07-12T15:24:49;0.90;;;0.50;;
50709;SDS011;37033;49.994;21.992;2022-07-12T15:27:40;1.60;;;0.50;;
50709;SDS011;37033;49.994;21.992;2022-07-12T15:30:32;1.70;;;0.30;;
50709;SDS011;37033;49.994;21.992;2022-07-12T15:33:23;2.70;;;0.60;;
50709;SDS011;37033;49.994;21.992;2022-07-12T15:36:13;3.90;;;0.50;;
50709;SDS011;37033;49.994;21.992;2022-07-12T15:39:04;1.40;;;0.50;;
50709;SDS011;37033;49.994;21.992;2022-07-12T15:41:56;1.30;;;0.50;;
50709;SDS011;37033;49.994;21.992;2022-07-12T15:44:46;1.40;;;0.60;;
50709;SDS011;37033;49.994;21.992;2022-07-12T15:47:37;2.50;;;0.50;;
50709;SDS011;37033;49.994;21.992;2022-07-12T15:50:27;1.20;;;0.50;;
50709;SDS011;37033;49.994;21.992;2022-07-12T15:53:19;2.70;;;0.30;;
50709;SDS011;37033;49.994;21.992;2022-07-12T15:56:18;0.30;;;0.30;;
50709;SDS011;37033;49.994;21.992;2022-07-12T15:59:08;1.10;;;0.70;;
50709;SDS011;37033;49.994;21.992;2022-07-12T16:01:59;0.80;;;0.40;;
50709;SDS011;37033;49.994;21.992;2022-07-12T16:04:50;1.60;;;0.80;;
50709;SDS011;37033;49.994;21.992;2022-07-12T16:07:40;1.30;;;0.40;;
50709;SDS011;37033;49.994;21.992;2022-07-12T16:10:31;2.20;;;0.40;;
50709;SDS011;37033;49.994;21.992;2022-07-12T16:13:21;3.00;;;0.60;;
50709;SDS011;37033;49.994;21.992;2022-07-12T16:16:12;5.80;;;3.20;;
50709;SDS011;37033;49.994;21.992;2022-07-12T16:19:03;0.60;;;0.50;;
50709;SDS011;37033;49.994;21.992;2022-07-12T16:21:53;1.70;;;0.50;;
50709;SDS011;37033;49.994;21.992;2022-07-12T16:24:44;0.70;;;0.50;;
50709;SDS011;37033;49.994;21.992;2022-07-12T16:27:35;1.10;;;0.50;;
50709;SDS011;37033;49.994;21.992;2022-07-12T16:30:26;0.70;;;0.40;;
50709;SDS011;37033;49.994;21.992;2022-07-12T16:33:16;2.20;;;0.50;;
50709;SDS011;37033;49.994;21.992;2022-07-12T16:36:07;1.30;;;0.60;;
50709;SDS011;37033;49.994;21.992;2022-07-12T16:38:57;1.20;;;0.80;;
50709;SDS011;37033;49.994;21.992;2022-07-12T16:41:47;4.40;;;3.50;;
50709;SDS011;37033;49.994;21.992;2022-07-12T16:44:38;3.00;;;1.20;;
50709;SDS011;37033;49.994;21.992;2022-07-12T16:47:28;1.40;;;1.00;;
50709;SDS011;37033;49.994;21.992;2022-07-12T16:50:19;2.00;;;1.30;;
50709;SDS011;37033;49.994;21.992;2022-07-12T16:53:09;1.80;;;1.40;;
50709;SDS011;37033;49.994;21.992;2022-07-12T16:56:00;1.40;;;1.00;;
50709;SDS011;37033;49.994;21.992;2022-07-12T16:58:51;2.40;;;1.00;;
50709;SDS011;37033;49.994;21.992;2022-07-12T17:01:41;5.80;;;3.60;;
50709;SDS011;37033;49.994;21.992;2022-07-12T17:04:32;4.30;;;2.40;;
50709;SDS011;37033;49.994;21.992;2022-07-12T17:07:23;5.30;;;1.50;;
50709;SDS011;37033;49.994;21.992;2022-07-12T17:10:14;4.00;;;1.30;;
50709;SDS011;37033;49.994;21.992;2022-07-12T17:13:05;2.10;;;1.10;;